createdAt,value
2022-07-26T00:01:15.122Z,99585.16
2022-07-26T00:03:41.930Z,99580.25
2022-07-26T00:06:08.876Z,99577.16
2022-07-26T00:08:35.540Z,99577.38
2022-07-26T00:11:07.039Z,99578.09
2022-07-26T00:13:35.161Z,99573.53
2022-07-26T00:16:02.299Z,99568.88
2022-07-26T00:18:29.022Z,99570.06
2022-07-26T00:20:55.707Z,99573.03
2022-07-26T00:23:22.626Z,99570.06
2022-07-26T00:25:49.479Z,99562.31
2022-07-26T00:28:16.153Z,99563.28
2022-07-26T00:30:43.206Z,99558.81
2022-07-26T00:33:09.855Z,99552.03
2022-07-26T00:35:36.498Z,99546.34
2022-07-26T00:38:03.143Z,99547.69
2022-07-26T00:40:30.484Z,99552.84
2022-07-26T00:42:57.124Z,99543.72
2022-07-26T00:45:23.806Z,99539.63
2022-07-26T00:47:50.511Z,99535.72
2022-07-26T00:50:18.729Z,99533.09
2022-07-26T00:52:47.743Z,99537.56
2022-07-26T00:55:15.493Z,99534.00
2022-07-26T00:57:43.090Z,99531.19
2022-07-26T01:00:16.173Z,99527.22
2022-07-26T01:02:43.569Z,99522.25
2022-07-26T01:05:11.163Z,99527.16
2022-07-26T01:07:38.899Z,99530.03
2022-07-26T01:10:09.075Z,99523.94
2022-07-26T01:12:36.683Z,99529.19
2022-07-26T01:15:03.789Z,99518.22
2022-07-26T01:17:30.532Z,99519.16
2022-07-26T01:19:57.168Z,99506.50
2022-07-26T01:22:23.816Z,99511.72
2022-07-26T01:24:50.553Z,99510.78
2022-07-26T01:27:17.492Z,99504.81
2022-07-26T01:29:44.213Z,99501.53
2022-07-26T01:32:10.879Z,99503.28
2022-07-26T01:34:37.509Z,99497.78
2022-07-26T01:37:04.309Z,99494.25
2022-07-26T01:39:30.959Z,99494.25
2022-07-26T01:41:57.594Z,99495.25
2022-07-26T01:44:24.377Z,99485.25
2022-07-26T01:46:51.135Z,99490.25
2022-07-26T01:49:18.020Z,99479.31
2022-07-26T01:51:44.734Z,99478.00
2022-07-26T01:54:12.924Z,99476.16
2022-07-26T01:56:39.693Z,99470.44
2022-07-26T01:59:06.372Z,99474.09
2022-07-26T02:01:38.845Z,99472.81
2022-07-26T02:04:08.979Z,99475.59
2022-07-26T02:06:36.047Z,99472.09
2022-07-26T02:09:04.522Z,99470.00
2022-07-26T02:11:34.157Z,99465.63
2022-07-26T02:14:00.778Z,99467.94
2022-07-26T02:16:27.521Z,99468.19
2022-07-26T02:18:54.234Z,99471.97
2022-07-26T02:21:20.894Z,99470.50
2022-07-26T02:23:47.509Z,99464.94
2022-07-26T02:26:14.179Z,99472.22
2022-07-26T02:28:40.902Z,99467.94
2022-07-26T02:31:07.593Z,99474.13
2022-07-26T02:33:34.288Z,99468.31
2022-07-26T02:36:00.938Z,99468.94
2022-07-26T02:38:27.569Z,99474.44
2022-07-26T02:40:54.320Z,99472.00
2022-07-26T02:43:21.052Z,99473.31
2022-07-26T02:46:01.226Z,99473.44
2022-07-26T02:48:29.048Z,99477.00
2022-07-26T02:50:55.702Z,99480.63
2022-07-26T02:53:22.362Z,99483.28
2022-07-26T02:55:48.991Z,99480.00
2022-07-26T02:58:15.599Z,99475.88
2022-07-26T03:00:42.417Z,99477.00
2022-07-26T03:03:09.200Z,99461.41
2022-07-26T03:05:35.921Z,99466.75
2022-07-26T03:08:02.610Z,99467.47
2022-07-26T03:10:29.358Z,99465.66
2022-07-26T03:12:57.075Z,99478.19
2022-07-26T03:15:23.780Z,99478.78
2022-07-26T03:17:50.431Z,99473.81
2022-07-26T03:20:17.226Z,99469.19
2022-07-26T03:22:43.947Z,99478.53
2022-07-26T03:25:10.602Z,99476.47
2022-07-26T03:27:37.300Z,99475.00
2022-07-26T03:30:05.313Z,99474.06
2022-07-26T03:32:31.980Z,99479.88
2022-07-26T03:34:58.776Z,99476.25
2022-07-26T03:37:25.453Z,99480.47
2022-07-26T03:40:12.597Z,99478.03
2022-07-26T03:42:39.227Z,99479.50
2022-07-26T03:45:06.481Z,99478.78
2022-07-26T03:47:33.109Z,99484.34
2022-07-26T03:49:59.754Z,99480.22
2022-07-26T03:52:26.401Z,99476.25
2022-07-26T03:54:53.037Z,99468.56
2022-07-26T03:57:19.832Z,99483.38
2022-07-26T03:59:46.496Z,99467.81
2022-07-26T04:02:13.162Z,99473.44
2022-07-26T04:04:39.817Z,99465.66
2022-07-26T04:07:06.741Z,99465.16
2022-07-26T04:09:36.002Z,99467.56
2022-07-26T04:12:02.701Z,99453.00
2022-07-26T04:14:29.322Z,99454.47
2022-07-26T04:16:56.075Z,99450.47
2022-07-26T04:19:22.721Z,99450.56
2022-07-26T04:21:49.382Z,99442.53
2022-07-26T04:24:16.062Z,99443.66
2022-07-26T04:26:42.701Z,99444.03
2022-07-26T04:29:09.331Z,99453.00
2022-07-26T04:31:38.500Z,99452.03
2022-07-26T04:34:05.404Z,99458.34
2022-07-26T04:36:32.437Z,99457.28
2022-07-26T04:38:59.097Z,99459.31
2022-07-26T04:41:25.746Z,99453.97
2022-07-26T04:43:52.591Z,99454.88
2022-07-26T04:46:19.332Z,99456.66
2022-07-26T04:48:46.117Z,99472.25
2022-07-26T04:51:12.804Z,99471.66
2022-07-26T04:53:39.497Z,99483.13
2022-07-26T04:56:07.805Z,99501.97
2022-07-26T04:58:34.447Z,99519.50
2022-07-26T05:01:16.502Z,99540.81
2022-07-26T05:03:43.698Z,99532.19
2022-07-26T05:06:10.341Z,99506.25
2022-07-26T05:08:36.989Z,99503.44
2022-07-26T05:11:03.826Z,99511.47
2022-07-26T05:13:31.114Z,99526.19
2022-07-26T05:15:59.224Z,99518.09
2022-07-26T05:18:26.065Z,99516.69
2022-07-26T05:20:52.799Z,99519.50
2022-07-26T05:23:19.612Z,99505.34
2022-07-26T05:25:47.035Z,99507.13
2022-07-26T05:28:13.661Z,99507.84
2022-07-26T05:30:40.335Z,99501.97
2022-07-26T05:33:07.086Z,99508.66
2022-07-26T05:35:33.757Z,99513.53
2022-07-26T05:38:00.400Z,99508.72
2022-07-26T05:40:27.084Z,99519.50
2022-07-26T05:42:53.714Z,99520.47
2022-07-26T05:45:20.534Z,99504.88
2022-07-26T05:47:50.665Z,99507.16
2022-07-26T05:50:18.122Z,99508.56
2022-07-26T05:52:44.805Z,99508.44
2022-07-26T05:55:11.663Z,99511.38
2022-07-26T05:57:38.666Z,99522.06
2022-07-26T06:00:06.232Z,99522.91
2022-07-26T06:02:34.672Z,99511.31
2022-07-26T06:05:01.394Z,99518.81
2022-07-26T06:07:28.028Z,99512.31
2022-07-26T06:09:54.642Z,99510.06
2022-07-26T06:12:21.329Z,99517.41
2022-07-26T06:14:47.945Z,99526.88
2022-07-26T06:17:14.744Z,99521.22
2022-07-26T06:19:47.121Z,99531.16
2022-07-26T06:22:14.359Z,99517.44
2022-07-26T06:24:41.018Z,99520.94
2022-07-26T06:27:07.699Z,99513.31
2022-07-26T06:29:34.317Z,99516.28
2022-07-26T06:32:01.193Z,99504.63
2022-07-26T06:34:27.945Z,99498.41
2022-07-26T06:36:54.710Z,99495.44
2022-07-26T06:39:21.370Z,99494.28
2022-07-26T06:41:48.097Z,99493.09
2022-07-26T06:44:15.013Z,99485.13
2022-07-26T06:46:41.670Z,99484.75
2022-07-26T06:49:08.314Z,99490.06
2022-07-26T06:51:35.017Z,99485.13
2022-07-26T06:54:01.654Z,99483.59
2022-07-26T06:56:28.407Z,99487.81
2022-07-26T06:58:55.046Z,99487.38
2022-07-26T07:01:58.610Z,99489.97
2022-07-26T07:04:08.617Z,99486.53
2022-07-26T07:06:35.559Z,99477.91
2022-07-26T07:09:02.186Z,99484.28
2022-07-26T07:11:28.850Z,99484.53
2022-07-26T07:13:56.344Z,99483.47
2022-07-26T07:16:23.026Z,99483.53
2022-07-26T07:18:49.683Z,99473.19
2022-07-26T07:21:16.290Z,99474.19
2022-07-26T07:23:42.930Z,99471.38
2022-07-26T07:26:09.565Z,99470.38
2022-07-26T07:28:36.218Z,99460.97
2022-07-26T07:31:03.846Z,99471.22
2022-07-26T07:33:36.524Z,99467.47
2022-07-26T07:36:17.470Z,99477.16
2022-07-26T07:38:48.420Z,99479.22
2022-07-26T07:41:16.286Z,99469.91
2022-07-26T07:43:42.907Z,99479.38
2022-07-26T07:46:09.582Z,99481.91
2022-07-26T07:48:39.357Z,99477.16
2022-07-26T07:51:08.376Z,99482.75
2022-07-26T07:53:35.103Z,99471.59
2022-07-26T07:56:02.566Z,99476.69
2022-07-26T07:58:29.228Z,99487.22
2022-07-26T08:00:55.922Z,99479.72
2022-07-26T08:03:22.591Z,99480.63
2022-07-26T08:05:49.323Z,99479.41
2022-07-26T08:08:17.474Z,99482.09
2022-07-26T08:10:52.026Z,99482.81
2022-07-26T08:13:22.884Z,99485.00
2022-07-26T08:15:51.375Z,99488.22
2022-07-26T08:18:18.550Z,99498.53
2022-07-26T08:20:49.518Z,99493.25
2022-07-26T08:23:16.417Z,99485.53
2022-07-26T08:25:55.651Z,99486.66
2022-07-26T08:28:46.264Z,99484.81
2022-07-26T08:31:10.259Z,99476.69
2022-07-26T08:33:37.069Z,99482.47
2022-07-26T08:36:07.897Z,99477.69
2022-07-26T08:38:34.587Z,99481.13
2022-07-26T08:41:01.257Z,99483.47
2022-07-26T08:43:28.943Z,99475.72
2022-07-26T08:46:01.777Z,99478.09
2022-07-26T08:48:28.938Z,99471.63
2022-07-26T08:50:57.117Z,99479.91
2022-07-26T08:53:23.831Z,99480.13
2022-07-26T08:56:06.558Z,99476.38
2022-07-26T08:58:35.756Z,99481.09
2022-07-26T09:01:10.807Z,99482.13
2022-07-26T09:03:37.678Z,99492.25
2022-07-26T09:06:19.885Z,99488.72
2022-07-26T09:08:49.269Z,99491.75
2022-07-26T09:11:25.169Z,99501.56
2022-07-26T09:13:58.404Z,99500.03
2022-07-26T09:16:25.635Z,99493.41
2022-07-26T09:18:53.327Z,99500.50
2022-07-26T09:21:35.710Z,99502.72
2022-07-26T09:24:02.486Z,99505.13
2022-07-26T09:26:29.162Z,99511.03
2022-07-26T09:29:22.059Z,99521.34
2022-07-26T09:31:48.838Z,99523.53
2022-07-26T09:34:25.048Z,99527.75
2022-07-26T09:36:53.965Z,99542.13
2022-07-26T09:39:22.728Z,99549.47
2022-07-26T09:42:26.777Z,99561.28
2022-07-26T09:44:55.402Z,99577.28
2022-07-26T09:47:22.954Z,99589.13
2022-07-26T09:49:49.898Z,99601.41
2022-07-26T09:52:19.727Z,99619.72
2022-07-26T09:54:47.764Z,99635.06
2022-07-26T09:57:19.193Z,99617.84
2022-07-26T09:59:47.298Z,99603.88
2022-07-26T10:02:14.627Z,99587.75
2022-07-26T10:04:42.474Z,99597.56
2022-07-26T10:07:10.621Z,99617.44
2022-07-26T10:09:50.470Z,99626.56
2022-07-26T10:12:17.374Z,99617.94
2022-07-26T10:14:48.652Z,99615.00
2022-07-26T10:17:31.345Z,99604.50
2022-07-26T10:20:00.490Z,99595.50
2022-07-26T10:22:43.403Z,99586.69
2022-07-26T10:25:19.214Z,99599.38
2022-07-26T10:27:54.951Z,99593.47
2022-07-26T10:30:23.453Z,99578.28
2022-07-26T10:33:01.931Z,99581.25
2022-07-26T10:35:34.535Z,99608.63
2022-07-26T10:38:21.878Z,99640.09
2022-07-26T10:41:06.584Z,99637.97
2022-07-26T10:43:42.311Z,99635.63
2022-07-26T10:46:18.733Z,99647.50
2022-07-26T10:49:02.755Z,99664.38
2022-07-26T10:51:36.269Z,99676.41
2022-07-26T10:54:13.896Z,99675.50
2022-07-26T10:56:41.133Z,99674.72
2022-07-26T10:59:07.919Z,99651.84
2022-07-26T11:01:37.006Z,99629.41
2022-07-26T11:04:04.769Z,99637.25
2022-07-26T11:06:32.619Z,99658.59
2022-07-26T11:09:10.105Z,99664.59
2022-07-26T11:11:36.779Z,99678.69
2022-07-26T11:14:07.465Z,99690.84
2022-07-26T11:16:46.805Z,99684.78
2022-07-26T11:19:14.371Z,99685.53
2022-07-26T11:21:41.786Z,99682.03
2022-07-26T11:24:08.837Z,99682.78
2022-07-26T11:26:43.744Z,99673.22
2022-07-26T11:29:10.687Z,99658.44
2022-07-26T11:31:50.604Z,99655.03
2022-07-26T11:34:29.035Z,99658.22
2022-07-26T11:36:58.042Z,99657.25
2022-07-26T11:39:26.917Z,99645.84
2022-07-26T11:41:59.617Z,99663.31
2022-07-26T11:44:27.878Z,99652.22
2022-07-26T11:46:54.889Z,99654.06
2022-07-26T11:52:25.497Z,99651.72
2022-07-26T11:54:53.721Z,99655.91
2022-07-26T11:57:20.921Z,99662.09
2022-07-26T11:59:48.812Z,99654.50
2022-07-26T12:02:15.945Z,99650.00
2022-07-26T12:04:43.925Z,99657.91
2022-07-26T12:07:18.772Z,99655.47
2022-07-26T12:09:54.625Z,99656.81
2022-07-26T12:12:24.098Z,99655.81
2022-07-26T12:15:00.611Z,99650.38
2022-07-26T12:17:35.263Z,99646.34
2022-07-26T12:20:17.415Z,99651.09
2022-07-26T12:22:57.989Z,99658.13
2022-07-26T12:25:29.085Z,99644.91
2022-07-26T12:27:56.574Z,99640.97
2022-07-26T12:30:23.521Z,99638.06
2022-07-26T12:32:50.715Z,99632.16
2022-07-26T12:35:30.450Z,99641.66
2022-07-26T12:37:57.094Z,99633.84
2022-07-26T12:40:26.640Z,99626.59
2022-07-26T12:43:01.031Z,99632.97
2022-07-26T12:45:34.214Z,99628.28
2022-07-26T12:48:03.322Z,99626.91
2022-07-26T12:50:30.762Z,99626.34
2022-07-26T12:53:06.020Z,99625.75
2022-07-26T12:55:33.451Z,99625.59
2022-07-26T12:58:00.303Z,99628.81
2022-07-26T13:00:28.600Z,99618.59
2022-07-26T13:02:56.856Z,99624.50
2022-07-26T13:05:23.535Z,99616.00
2022-07-26T13:07:50.283Z,99621.81
2022-07-26T13:10:34.740Z,99632.47
2022-07-26T13:13:02.913Z,99625.09
2022-07-26T13:15:36.114Z,99629.72
2022-07-26T13:18:08.847Z,99632.34
2022-07-26T13:20:39.207Z,99630.00
2022-07-26T13:23:07.008Z,99632.47
2022-07-26T13:25:39.954Z,99634.69
2022-07-26T13:28:07.762Z,99640.47
2022-07-26T13:30:36.610Z,99645.50
2022-07-26T13:33:03.394Z,99637.19
2022-07-26T13:35:30.101Z,99644.63
2022-07-26T13:37:56.820Z,99655.09
2022-07-26T13:40:27.550Z,99652.69
2022-07-26T13:42:57.848Z,99651.66
2022-07-26T13:45:24.483Z,99646.59
2022-07-26T13:47:56.139Z,99650.69
2022-07-26T13:50:22.838Z,99649.59
2022-07-26T13:52:49.615Z,99647.69
2022-07-26T13:55:16.259Z,99641.22
2022-07-26T13:57:56.079Z,99639.09
2022-07-26T14:00:29.157Z,99643.72
2022-07-26T14:02:58.430Z,99654.91
2022-07-26T14:05:25.971Z,99661.72
2022-07-26T14:07:52.852Z,99660.84
2022-07-26T14:10:21.241Z,99661.28
2022-07-26T14:12:48.253Z,99661.41
2022-07-26T14:15:21.153Z,99658.16
2022-07-26T14:17:48.654Z,99662.69
2022-07-26T14:20:15.430Z,99661.38
2022-07-26T14:22:42.091Z,99665.91
2022-07-26T14:25:09.172Z,99669.22
2022-07-26T14:27:35.882Z,99659.16
2022-07-26T14:30:04.122Z,99655.03
2022-07-26T14:32:30.790Z,99651.22
2022-07-26T14:34:57.414Z,99657.44
2022-07-26T14:37:42.244Z,99659.16
2022-07-26T14:40:11.709Z,99658.00
2022-07-26T14:42:38.420Z,99649.78
2022-07-26T14:45:05.675Z,99652.91
2022-07-26T14:47:32.358Z,99657.44
2022-07-26T14:50:02.884Z,99662.53
2022-07-26T14:52:33.077Z,99657.44
2022-07-26T14:54:59.719Z,99663.94
2022-07-26T14:57:26.344Z,99656.56
2022-07-26T14:59:52.983Z,99647.69
2022-07-26T15:02:19.754Z,99654.56
2022-07-26T15:04:46.446Z,99651.88
2022-07-26T15:07:13.097Z,99649.66
2022-07-26T15:09:39.880Z,99646.25
2022-07-26T15:12:06.798Z,99642.44
2022-07-26T15:14:33.430Z,99644.56
2022-07-26T15:17:00.113Z,99645.00
2022-07-26T15:19:26.903Z,99639.91
2022-07-26T15:21:54.518Z,99637.50
2022-07-26T15:24:23.106Z,99637.22
2022-07-26T15:26:51.124Z,99630.16
2022-07-26T15:29:17.903Z,99628.44
2022-07-26T15:31:44.739Z,99626.91
2022-07-26T15:34:11.919Z,99626.06
2022-07-26T15:36:38.912Z,99616.72
2022-07-26T15:39:16.693Z,99621.38
2022-07-26T15:41:45.602Z,99622.34
2022-07-26T15:44:12.820Z,99616.00
2022-07-26T15:46:39.908Z,99616.00
2022-07-26T15:49:07.546Z,99621.09
2022-07-26T15:51:34.378Z,99622.06
2022-07-26T15:54:02.961Z,99629.72
2022-07-26T15:56:29.723Z,99623.94
2022-07-26T15:58:56.449Z,99623.50
2022-07-26T16:01:23.302Z,99636.78
2022-07-26T16:03:50.106Z,99626.34
2022-07-26T16:06:16.870Z,99626.91
2022-07-26T16:09:05.812Z,99625.75
2022-07-26T16:11:31.409Z,99620.81
2022-07-26T16:14:01.102Z,99630.56
2022-07-26T16:16:30.243Z,99616.56
2022-07-26T16:18:57.512Z,99614.41
2022-07-26T16:21:24.535Z,99619.69
2022-07-26T16:23:51.282Z,99604.38
2022-07-26T16:26:18.479Z,99619.41
2022-07-26T16:28:45.408Z,99618.28
2022-07-26T16:31:12.441Z,99621.53
2022-07-26T16:33:46.090Z,99623.91
2022-07-26T16:36:13.726Z,99626.19
2022-07-26T16:38:40.359Z,99626.91
2022-07-26T16:41:07.001Z,99625.88
2022-07-26T16:43:33.637Z,99634.09
2022-07-26T16:46:00.692Z,99625.75
2022-07-26T16:48:27.325Z,99627.19
2022-07-26T16:50:53.954Z,99633.13
2022-07-26T16:53:20.714Z,99634.53
2022-07-26T16:55:47.467Z,99621.25
2022-07-26T16:58:14.090Z,99628.88
2022-07-26T17:00:41.118Z,99620.38
2022-07-26T17:03:07.824Z,99625.59
2022-07-26T17:05:34.520Z,99635.94
2022-07-26T17:08:01.272Z,99625.31
2022-07-26T17:10:27.959Z,99624.50
2022-07-26T17:12:54.601Z,99635.66
2022-07-26T17:15:21.350Z,99631.00
2022-07-26T17:17:49.024Z,99636.09
2022-07-26T17:20:16.828Z,99631.84
2022-07-26T17:22:43.505Z,99639.19
2022-07-26T17:25:10.299Z,99640.63
2022-07-26T17:27:37.059Z,99646.97
2022-07-26T17:30:09.134Z,99647.13
2022-07-26T17:32:35.924Z,99652.06
2022-07-26T17:35:02.592Z,99646.81
2022-07-26T17:37:29.235Z,99654.06
2022-07-26T17:39:57.333Z,99649.63
2022-07-26T17:42:24.357Z,99652.31
2022-07-26T17:44:51.322Z,99654.03
2022-07-26T17:47:29.292Z,99656.31
2022-07-26T17:50:14.076Z,99656.16
2022-07-26T17:52:45.967Z,99653.09
2022-07-26T17:55:12.642Z,99651.63
2022-07-26T17:57:39.353Z,99654.88
2022-07-26T18:00:06.981Z,99658.56
2022-07-26T18:02:33.731Z,99661.50
2022-07-26T18:05:00.467Z,99662.50
2022-07-26T18:07:27.201Z,99654.22
2022-07-26T18:09:53.939Z,99644.47
2022-07-26T18:12:20.632Z,99641.16
2022-07-26T18:14:47.317Z,99632.09
2022-07-26T18:17:14.003Z,99627.53
2022-07-26T18:19:40.640Z,99621.59
2022-07-26T18:22:07.264Z,99635.56
2022-07-26T18:24:33.905Z,99650.91
2022-07-26T18:27:00.546Z,99658.50
2022-07-26T18:29:27.191Z,99656.91
2022-07-26T18:31:54.013Z,99655.69
2022-07-26T18:34:20.695Z,99655.22
2022-07-26T18:36:47.333Z,99670.03
2022-07-26T18:39:14.421Z,99657.03
2022-07-26T18:41:41.235Z,99662.56
2022-07-26T18:44:07.898Z,99664.91
2022-07-26T18:46:34.624Z,99665.19
2022-07-26T18:49:01.447Z,99667.63
2022-07-26T18:51:29.291Z,99669.16
2022-07-26T18:53:58.438Z,99676.44
2022-07-26T18:56:25.085Z,99676.03
2022-07-26T18:58:51.706Z,99690.50
2022-07-26T19:01:18.419Z,99688.78
2022-07-26T19:03:45.223Z,99686.38
2022-07-26T19:06:11.964Z,99689.50
2022-07-26T19:08:38.872Z,99699.81
2022-07-26T19:11:05.665Z,99696.41
2022-07-26T19:13:32.313Z,99692.63
2022-07-26T19:15:59.030Z,99695.88
2022-07-26T19:18:25.743Z,99704.59
2022-07-26T19:20:52.386Z,99703.94
2022-07-26T19:23:19.236Z,99700.91
2022-07-26T19:25:45.926Z,99694.59
2022-07-26T19:28:14.006Z,99690.94
2022-07-26T19:30:40.973Z,99696.16
2022-07-26T19:33:07.617Z,99694.34
2022-07-26T19:35:34.256Z,99698.09
2022-07-26T19:38:00.936Z,99692.16
2022-07-26T19:40:27.694Z,99698.78
2022-07-26T19:42:54.323Z,99700.31
2022-07-26T19:45:21.175Z,99709.91
2022-07-26T19:47:48.157Z,99706.31
2022-07-26T19:50:14.905Z,99713.19
2022-07-26T19:52:41.536Z,99699.53
2022-07-26T19:55:09.449Z,99707.91
2022-07-26T19:57:36.700Z,99696.22
2022-07-26T20:00:07.804Z,99698.03
2022-07-26T20:02:34.521Z,99703.63
2022-07-26T20:05:01.304Z,99692.69
2022-07-26T20:07:27.992Z,99691.72
2022-07-26T20:09:54.754Z,99694.31
2022-07-26T20:12:21.911Z,99696.16
2022-07-26T20:14:48.750Z,99697.78
2022-07-26T20:17:16.143Z,99691.88
2022-07-26T20:19:42.876Z,99705.19
2022-07-26T20:22:09.722Z,99698.13
2022-07-26T20:24:36.536Z,99708.34
2022-07-26T20:27:03.193Z,99704.94
2022-07-26T20:29:29.832Z,99706.66
2022-07-26T20:31:56.495Z,99707.34
2022-07-26T20:34:23.221Z,99709.44
2022-07-26T20:36:49.882Z,99710.75
2022-07-26T20:39:16.564Z,99714.19
2022-07-26T20:41:43.195Z,99713.69
2022-07-26T20:44:09.964Z,99721.34
2022-07-26T20:46:36.746Z,99729.97
2022-07-26T20:49:03.464Z,99731.78
2022-07-26T20:51:30.116Z,99735.09
2022-07-26T20:53:56.822Z,99730.09
2022-07-26T20:56:23.466Z,99730.94
2022-07-26T20:58:50.137Z,99727.28
2022-07-26T21:01:17.388Z,99734.59
2022-07-26T21:03:44.079Z,99724.84
2022-07-26T21:06:10.722Z,99737.50
2022-07-26T21:08:37.390Z,99738.72
2022-07-26T21:11:04.029Z,99733.59
2022-07-26T21:13:30.723Z,99728.34
2022-07-26T21:15:57.351Z,99737.75
2022-07-26T21:18:23.984Z,99731.66
2022-07-26T21:20:50.616Z,99737.47
2022-07-26T21:23:18.405Z,99744.22
2022-07-26T21:25:45.334Z,99733.69
2022-07-26T21:28:11.989Z,99735.63
2022-07-26T21:30:38.890Z,99736.97
2022-07-26T21:33:05.571Z,99742.84
2022-07-26T21:35:32.440Z,99754.81
2022-07-26T21:37:59.109Z,99750.59
2022-07-26T21:40:26.120Z,99748.88
2022-07-26T21:42:52.837Z,99749.56
2022-07-26T21:45:19.627Z,99758.06
2022-07-26T21:47:46.278Z,99761.69
2022-07-26T21:50:12.932Z,99763.44
2022-07-26T21:52:40.449Z,99759.81
2022-07-26T21:55:07.617Z,99761.38
2022-07-26T21:57:34.277Z,99760.59
2022-07-26T22:00:00.922Z,99757.13
2022-07-26T22:02:27.673Z,99752.53
2022-07-26T22:04:54.392Z,99756.69
2022-07-26T22:07:21.030Z,99752.28
2022-07-26T22:09:47.658Z,99758.25
2022-07-26T22:12:14.279Z,99760.69
2022-07-26T22:14:40.981Z,99763.50
2022-07-26T22:17:07.601Z,99758.16
2022-07-26T22:19:34.234Z,99759.06
2022-07-26T22:22:01.128Z,99763.38
2022-07-26T22:24:27.996Z,99765.31
2022-07-26T22:26:54.618Z,99768.78
2022-07-26T22:29:21.251Z,99775.78
2022-07-26T22:31:47.879Z,99776.66
2022-07-26T22:34:14.546Z,99771.19
2022-07-26T22:36:45.395Z,99777.47
2022-07-26T22:39:12.863Z,99781.25
2022-07-26T22:42:05.108Z,99777.75
2022-07-26T22:44:26.465Z,99780.84
2022-07-26T22:46:53.107Z,99779.03
2022-07-26T22:49:19.810Z,99774.91
2022-07-26T22:51:46.908Z,99772.41
2022-07-26T22:54:13.578Z,99781.13
2022-07-26T22:56:40.210Z,99780.31
2022-07-26T22:59:06.840Z,99786.81
2022-07-26T23:01:33.515Z,99791.72
2022-07-26T23:04:00.747Z,99787.16
2022-07-26T23:06:32.016Z,99787.84
2022-07-26T23:08:59.178Z,99794.91
2022-07-26T23:11:25.850Z,99795.13
2022-07-26T23:13:58.940Z,99788.47
2022-07-26T23:16:26.781Z,99790.91
2022-07-26T23:18:53.504Z,99800.38
2022-07-26T23:21:20.221Z,99802.91
2022-07-26T23:23:46.828Z,99793.06
2022-07-26T23:26:13.694Z,99801.19
2022-07-26T23:28:40.401Z,99799.16
2022-07-26T23:31:11.375Z,99791.88
2022-07-26T23:33:52.932Z,99787.00
2022-07-26T23:36:28.423Z,99788.66
2022-07-26T23:38:57.094Z,99787.63
2022-07-26T23:41:24.768Z,99795.31
2022-07-26T23:43:52.068Z,99796.38
2022-07-26T23:46:18.754Z,99789.34
2022-07-26T23:48:45.973Z,99781.56
2022-07-26T23:51:12.768Z,99791.03
2022-07-26T23:53:39.523Z,99791.16
2022-07-26T23:56:06.264Z,99794.53
2022-07-26T23:58:33.026Z,99789.78
